Time;durP1;ratioP1;P1;durP2;ratioP2;P2;SDS_P1;SDS_P2;PMS_P1;PMS_P2;Temp;Humidity;BMP_temperature;BMP_pressure;BME280_temperature;BME280_humidity;BME280_pressure;Samples;Min_cycle;Max_cycle;Signal;HPM_P1;HPM_P2
2021/10/23 00:01:05;;;;;;;;;0.00;0.00;;;;;10.87;67.21;102289.84;5024861;28;45832;-75
2021/10/23 00:03:30;;;;;;;;;1.00;0.00;;;;;10.70;67.47;102260.66;5042908;28;45284;-75
2021/10/23 00:05:55;;;;;;;;;1.00;0.00;;;;;10.66;67.30;102255.28;5025448;28;45607;-75
2021/10/23 00:08:21;;;;;;;;;0.00;0.00;;;;;10.62;67.49;102251.69;5059374;28;46200;-75
2021/10/23 00:10:46;;;;;;;;;0.00;0.00;;;;;10.81;67.59;102284.41;5062977;28;45327;-75
2021/10/23 00:13:11;;;;;;;;;1.00;0.00;;;;;10.95;67.55;102310.03;5025977;28;45492;-75
2021/10/23 00:15:37;;;;;;;;;0.00;0.00;;;;;10.59;67.57;102262.00;5043116;28;46084;-75
2021/10/23 00:18:03;;;;;;;;;0.00;0.00;;;;;10.85;67.35;102306.25;5042420;28;46461;-75
2021/10/23 00:20:28;;;;;;;;;0.00;0.00;;;;;10.95;67.23;102303.13;5042812;28;45412;-76
2021/10/23 00:22:53;;;;;;;;;0.00;0.00;;;;;10.92;67.24;102296.91;5043011;28;45609;-76
2021/10/23 00:25:19;;;;;;;;;0.00;0.00;;;;;10.80;67.25;102279.16;5043037;28;45332;-75
2021/10/23 00:27:46;;;;;;;;;0.00;0.00;;;;;10.92;66.95;102303.00;5024855;28;47348;-75
2021/10/23 00:30:12;;;;;;;;;0.00;0.00;;;;;10.89;67.12;102311.63;5024418;28;45351;-75
2021/10/23 00:32:38;;;;;;;;;0.00;0.00;;;;;10.91;67.44;102309.06;5042761;28;45261;-75
2021/10/23 00:35:05;;;;;;;;;1.00;0.00;;;;;10.81;67.27;102294.84;5041266;28;45221;-75
2021/10/23 00:37:30;;;;;;;;;1.00;0.00;;;;;10.81;67.23;102293.97;5042309;28;46879;-75
2021/10/23 00:39:56;;;;;;;;;0.00;0.00;;;;;10.76;66.76;102283.41;5042312;28;45312;-75
2021/10/23 00:42:21;;;;;;;;;0.00;0.00;;;;;10.86;67.09;102305.41;5024662;28;45355;-75
2021/10/23 00:44:47;;;;;;;;;0.00;0.00;;;;;11.03;66.73;102325.06;5024607;28;45808;-75
2021/10/23 00:47:19;;;;;;;;;0.00;0.00;;;;;10.92;66.90;102296.91;5024457;28;47223;-75
2021/10/23 00:49:46;;;;;;;;;0.00;0.00;;;;;10.81;66.73;102276.59;5042348;28;45233;-75
2021/10/23 00:52:11;;;;;;;;;0.00;0.00;;;;;10.85;66.45;102285.41;5024415;28;45462;-75
2021/10/23 00:54:38;;;;;;;;;0.00;0.00;;;;;11.06;66.63;102318.22;5042560;28;45327;-73
2021/10/23 00:57:04;;;;;;;;;0.00;0.00;;;;;10.81;66.63;102276.59;5024136;28;47149;-76
2021/10/23 00:59:31;;;;;;;;;1.00;0.00;;;;;10.89;66.34;102297.69;5040579;28;45585;-75
2021/10/23 01:01:56;;;;;;;;;0.00;0.00;;;;;10.85;66.54;102299.34;5040695;28;45339;-76
2021/10/23 01:04:23;;;;;;;;;0.75;0.00;;;;;10.88;66.38;102302.00;5042166;28;45545;-76
2021/10/23 01:06:50;;;;;;;;;0.00;0.00;;;;;10.93;66.63;102303.91;5028216;28;47586;-74
2021/10/23 01:09:16;;;;;;;;;0.00;0.00;;;;;10.83;66.53;102287.97;5062092;28;45293;-74
2021/10/23 01:11:42;;;;;;;;;0.00;0.00;;;;;10.88;66.66;102295.94;5061978;28;45348;-74
2021/10/23 01:14:13;;;;;;;;;0.75;0.50;;;;;10.76;66.12;102280.78;5044101;28;45396;-74
2021/10/23 01:16:41;;;;;;;;;0.00;0.00;;;;;10.71;66.21;102278.03;5061883;28;46320;-74
2021/10/23 01:19:08;;;;;;;;;0.00;0.00;;;;;10.92;66.87;102315.13;5061901;28;45518;-75
2021/10/23 01:21:33;;;;;;;;;0.00;0.00;;;;;10.77;66.34;102282.56;5062400;28;45291;-74
2021/10/23 01:23:59;;;;;;;;;0.50;0.00;;;;;10.78;66.51;102289.53;5062233;28;45390;-75
2021/10/23 01:26:25;;;;;;;;;0.00;0.00;;;;;10.83;66.28;102298.38;5061911;28;45568;-77
2021/10/23 01:28:51;;;;;;;;;0.25;0.00;;;;;10.93;66.42;102307.38;5061933;28;45372;-73
2021/10/23 01:31:18;;;;;;;;;1.00;0.00;;;;;10.84;66.57;102284.53;5065634;28;45372;-75
2021/10/23 01:33:44;;;;;;;;;0.00;0.00;;;;;10.63;66.12;102243.91;5065526;28;45248;-74
2021/10/23 01:36:12;;;;;;;;;0.00;0.00;;;;;10.98;66.19;102299.72;5065467;28;45335;-74
2021/10/23 01:38:38;;;;;;;;;0.25;0.00;;;;;11.01;66.30;102297.22;5065368;28;45251;-75
2021/10/23 01:41:05;;;;;;;;;0.00;0.00;;;;;10.84;65.94;102266.28;5047634;28;45327;-74
2021/10/23 01:43:31;;;;;;;;;1.00;0.00;;;;;10.92;65.80;102291.69;5065456;28;45324;-75
2021/10/23 01:45:57;;;;;;;;;0.00;0.00;;;;;10.57;66.08;102230.69;5065264;28;46478;-75
2021/10/23 01:48:22;;;;;;;;;0.00;0.00;;;;;10.90;66.05;102279.50;5047156;28;45279;-74
2021/10/23 01:50:47;;;;;;;;;0.00;0.00;;;;;10.96;66.06;102285.78;5065459;28;45375;-76
2021/10/23 01:53:13;;;;;;;;;1.00;0.00;;;;;10.76;65.97;102266.03;5047256;28;45386;-73
2021/10/23 01:55:38;;;;;;;;;0.00;0.00;;;;;10.64;66.27;102243.09;5065279;28;45619;-76
2021/10/23 01:58:03;;;;;;;;;0.00;0.00;;;;;10.70;66.10;102258.03;5065349;28;45280;-74
2021/10/23 02:00:29;;;;;;;;;0.00;0.00;;;;;10.84;66.12;102291.47;5065007;28;45515;-75
2021/10/23 02:02:54;;;;;;;;;0.00;0.00;;;;;10.85;65.97;102293.22;5046784;28;45312;-75
2021/10/23 02:05:19;;;;;;;;;0.00;0.00;;;;;10.81;66.21;102284.41;5063579;28;47073;-75
2021/10/23 02:07:45;;;;;;;;;0.00;0.00;;;;;10.68;65.89;102258.78;5043295;28;45365;-76
2021/10/23 02:10:10;;;;;;;;;0.00;0.00;;;;;10.81;65.90;102283.56;5045046;28;45245;-76
2021/10/23 02:12:37;;;;;;;;;0.75;0.00;;;;;10.80;66.04;102279.16;5043537;28;45589;-75
2021/10/23 02:15:03;;;;;;;;;0.00;0.00;;;;;10.77;65.96;102275.63;5043211;28;48109;-76
2021/10/23 02:17:29;;;;;;;;;0.00;0.00;;;;;10.73;66.11;102259.84;5043157;28;45487;-76
2021/10/23 02:19:54;;;;;;;;;0.00;0.00;;;;;10.75;66.03;102269.47;5044472;28;45395;-76
2021/10/23 02:22:20;;;;;;;;;0.00;0.00;;;;;10.67;66.29;102257.94;5045035;28;45353;-76
2021/10/23 02:24:45;;;;;;;;;0.00;0.00;;;;;10.72;66.15;102245.06;5043084;28;47921;-75
2021/10/23 02:27:10;;;;;;;;;0.00;0.00;;;;;10.69;65.94;102243.22;5044479;28;45367;-75
2021/10/23 02:29:36;;;;;;;;;0.00;0.00;;;;;10.79;65.95;102244.44;5042987;28;45360;-75
2021/10/23 02:32:02;;;;;;;;;0.00;0.00;;;;;10.74;66.02;102236.47;5044868;28;45446;-75
2021/10/23 02:34:27;;;;;;;;;0.00;0.00;;;;;10.78;65.83;102245.22;5044342;28;45333;-76
2021/10/23 02:36:52;;;;;;;;;0.00;0.00;;;;;10.75;65.94;102232.16;5043107;28;45237;-75
2021/10/23 02:39:18;;;;;;;;;0.25;0.25;;;;;10.63;66.15;102207.44;5044548;28;45284;-77
2021/10/23 02:41:43;;;;;;;;;0.00;0.00;;;;;10.52;65.70;102188.00;5043197;28;45605;-74
2021/10/23 02:44:08;;;;;;;;;0.00;0.00;;;;;10.98;65.90;102266.72;5044167;28;46725;-75
2021/10/23 02:46:34;;;;;;;;;0.00;0.00;;;;;10.82;65.66;102241.91;5044158;28;45274;-75
2021/10/23 02:48:59;;;;;;;;;0.00;0.00;;;;;10.91;65.70;102269.97;5042771;28;45229;-75
2021/10/23 02:51:24;;;;;;;;;0.00;0.00;;;;;10.88;65.49;102264.66;5044646;28;45220;-75
2021/10/23 02:53:50;;;;;;;;;0.00;0.00;;;;;10.73;65.65;102237.31;5042643;28;47297;-75
2021/10/23 02:56:15;;;;;;;;;1.00;0.00;;;;;10.91;65.50;102259.56;5042942;28;45273;-75
2021/10/23 02:58:40;;;;;;;;;0.00;0.00;;;;;10.71;65.78;102236.34;5044122;28;45212;-75
2021/10/23 03:01:06;;;;;;;;;0.00;0.00;;;;;10.86;65.74;102264.63;5042967;28;45435;-75
2021/10/23 03:03:31;;;;;;;;;2.00;0.00;;;;;10.83;65.69;102255.81;5042132;28;46988;-75
2021/10/23 03:05:57;;;;;;;;;0.00;0.00;;;;;10.86;65.91;102276.75;5042539;28;45576;-75
2021/10/23 03:08:22;;;;;;;;;0.00;0.00;;;;;10.86;65.39;102277.66;5060544;28;45350;-75
2021/10/23 03:10:48;;;;;;;;;0.00;0.00;;;;;10.81;65.52;102276.59;5064292;28;45576;-75
2021/10/23 03:13:13;;;;;;;;;0.75;0.75;;;;;10.82;65.70;102267.06;5044142;28;45248;-76
2021/10/23 03:15:39;;;;;;;;;0.00;0.00;;;;;10.81;65.82;102257.50;5042354;28;45785;-75
2021/10/23 03:18:04;;;;;;;;;0.00;0.00;;;;;10.81;65.82;102252.28;5043822;28;45255;-76
2021/10/23 03:20:30;;;;;;;;;0.00;0.00;;;;;10.84;65.87;102258.47;5042621;28;45315;-76
2021/10/23 03:22:55;;;;;;;;;0.00;0.00;;;;;10.93;65.92;102270.91;5043453;28;45331;-74
2021/10/23 03:25:20;;;;;;;;;0.50;0.00;;;;;10.98;65.91;102278.88;5043710;28;45338;-74
2021/10/23 03:27:46;;;;;;;;;0.00;0.00;;;;;10.92;65.94;102260.44;5043854;28;45260;-75
2021/10/23 03:30:11;;;;;;;;;0.00;0.00;;;;;10.83;65.58;102250.59;5042303;28;45550;-75
2021/10/23 03:32:36;;;;;;;;;0.50;0.00;;;;;10.88;65.62;102252.50;5041743;28;47904;-74
2021/10/23 03:35:03;;;;;;;;;0.00;0.00;;;;;10.88;65.64;102264.66;5058814;28;45238;-75
2021/10/23 03:37:33;;;;;;;;;0.75;0.00;;;;;10.90;65.66;102278.63;5042444;28;45233;-73
2021/10/23 03:40:01;;;;;;;;;0.25;0.00;;;;;10.86;65.67;102276.75;5043596;28;45476;-73
2021/10/23 03:42:26;;;;;;;;;0.00;0.00;;;;;10.86;65.74;102271.53;5043126;28;45741;-76
2021/10/23 03:44:53;;;;;;;;;0.00;0.00;;;;;10.77;65.60;102257.41;5041435;28;45338;-74
2021/10/23 03:47:18;;;;;;;;;0.25;0.25;;;;;10.89;65.88;102269.03;5043460;28;45482;-74
2021/10/23 03:49:46;;;;;;;;;0.00;0.00;;;;;10.84;66.03;102270.63;5043505;28;45427;-74
2021/10/23 03:52:11;;;;;;;;;0.00;0.00;;;;;10.66;65.72;102237.03;5041067;28;48417;-74
2021/10/23 03:54:38;;;;;;;;;1.00;0.00;;;;;10.70;65.97;102245.00;5042905;28;45371;-74
2021/10/23 03:57:06;;;;;;;;;1.00;0.00;;;;;10.75;65.77;102258.19;5041151;28;45347;-75
2021/10/23 03:59:32;;;;;;;;;1.00;1.00;;;;;10.70;65.46;102238.91;5042661;28;45485;-74
2021/10/23 04:01:58;;;;;;;;;0.00;0.00;;;;;10.85;65.76;102267.19;5040911;28;47278;-74
2021/10/23 04:04:24;;;;;;;;;0.00;0.00;;;;;10.76;65.89;102257.34;5042041;28;45219;-75
2021/10/23 04:06:49;;;;;;;;;1.00;0.00;;;;;10.63;65.35;102236.09;5040801;28;45393;-74
2021/10/23 04:09:15;;;;;;;;;1.00;0.50;;;;;10.61;65.51;102231.69;5025118;28;45249;-75
2021/10/23 04:11:41;;;;;;;;;0.00;0.00;;;;;10.62;65.70;102228.22;5024586;28;47291;-74
2021/10/23 04:14:06;;;;;;;;;0.50;0.00;;;;;10.76;65.58;102247.78;5042407;28;45360;-74
2021/10/23 04:16:32;;;;;;;;;0.00;0.00;;;;;10.67;65.78;102231.00;5024519;28;45374;-75
2021/10/23 04:18:57;;;;;;;;;0.00;0.00;;;;;10.81;65.75;102249.69;5042857;28;45357;-74
2021/10/23 04:21:23;;;;;;;;;0.00;0.00;;;;;10.85;65.44;102251.53;5024524;28;46864;-73
2021/10/23 04:23:48;;;;;;;;;0.00;0.00;;;;;10.79;65.45;102244.44;5042443;28;45355;-74
2021/10/23 04:26:13;;;;;;;;;0.00;0.00;;;;;10.67;65.35;102225.78;5024573;28;45332;-74
2021/10/23 04:28:39;;;;;;;;;0.00;0.00;;;;;10.71;65.29;102225.94;5024183;28;45459;-74
2021/10/23 04:31:04;;;;;;;;;0.00;0.00;;;;;10.84;65.24;102242.84;5042065;28;45320;-74
2021/10/23 04:33:30;;;;;;;;;0.00;0.00;;;;;10.95;65.38;102265.75;5042535;28;45254;-74
2021/10/23 04:35:55;;;;;;;;;0.00;0.00;;;;;10.65;65.16;102215.31;5042874;28;45331;-74
2021/10/23 04:38:20;;;;;;;;;0.00;0.00;;;;;10.68;65.14;102220.63;5041798;28;45563;-74
2021/10/23 04:40:46;;;;;;;;;1.00;0.25;;;;;10.85;65.31;102246.34;5041966;28;45479;-74
2021/10/23 04:43:12;;;;;;;;;0.00;0.00;;;;;10.75;65.13;102227.81;5041526;28;45222;-75
2021/10/23 04:45:39;;;;;;;;;1.00;0.00;;;;;10.84;65.02;102252.38;5023995;28;45301;-75
2021/10/23 04:48:05;;;;;;;;;1.00;0.00;;;;;10.89;65.34;102269.94;5024291;28;45244;-74
2021/10/23 04:50:31;;;;;;;;;0.00;0.00;;;;;10.74;65.11;102240.78;5041484;28;46377;-74
2021/10/23 04:52:56;;;;;;;;;0.00;0.00;;;;;10.64;65.13;102223.97;5040864;28;45379;-74
2021/10/23 04:55:22;;;;;;;;;0.00;0.00;;;;;10.67;65.45;102226.69;5041566;28;45324;-74
2021/10/23 04:57:47;;;;;;;;;0.00;0.00;;;;;10.79;65.12;102247.03;5024289;28;45356;-74
2021/10/23 05:00:12;;;;;;;;;0.00;0.00;;;;;10.86;65.25;102261.13;5023421;28;47849;-74
2021/10/23 05:02:38;;;;;;;;;0.00;0.00;;;;;10.88;65.03;102268.16;5041563;28;45447;-74
2021/10/23 05:05:04;;;;;;;;;0.00;0.00;;;;;10.55;65.21;102213.25;5025761;28;45881;-74
2021/10/23 05:07:29;;;;;;;;;0.00;0.00;;;;;10.79;65.32;102257.44;5037351;28;45553;-74
2021/10/23 05:09:54;;;;;;;;;0.00;0.00;;;;;10.84;65.60;102268.88;5065662;28;46264;-74
2021/10/23 05:12:20;;;;;;;;;0.25;0.00;;;;;10.73;65.04;102241.63;5065058;28;45389;-74
2021/10/23 05:14:45;;;;;;;;;0.00;0.00;;;;;10.61;65.36;102221.28;5062927;28;45324;-74
2021/10/23 05:17:10;;;;;;;;;0.00;0.00;;;;;10.73;65.20;102257.25;5047255;28;45368;-74
2021/10/23 05:19:36;;;;;;;;;0.00;0.00;;;;;10.87;65.33;102275.91;5046234;28;47164;-75
2021/10/23 05:22:01;;;;;;;;;1.00;0.00;;;;;10.68;65.28;102249.28;5064938;28;45324;-75
2021/10/23 05:24:28;;;;;;;;;0.00;0.00;;;;;10.70;65.27;102246.72;5047482;28;45464;-74
2021/10/23 05:26:53;;;;;;;;;0.00;0.00;;;;;10.84;64.90;102268.88;5065982;28;45231;-74
2021/10/23 05:29:18;;;;;;;;;0.00;0.00;;;;;10.98;64.97;102286.69;5064750;28;46618;-74
2021/10/23 05:31:44;;;;;;;;;0.00;0.00;;;;;10.92;65.11;102276.97;5064973;28;45245;-75
2021/10/23 05:34:09;;;;;;;;;0.00;0.00;;;;;10.81;65.13;102262.72;5063992;28;45170;-75
2021/10/23 05:36:34;;;;;;;;;1.25;0.00;;;;;10.73;65.17;102252.03;5064102;28;45259;-74
2021/10/23 05:39:00;;;;;;;;;0.00;0.00;;;;;10.73;65.04;102258.13;5064854;28;45475;-75
2021/10/23 05:41:25;;;;;;;;;0.00;0.00;;;;;10.72;65.09;102258.09;5063747;28;45515;-74
2021/10/23 05:43:50;;;;;;;;;0.00;0.00;;;;;10.81;64.81;102278.34;5063245;28;45362;-75
2021/10/23 05:46:16;;;;;;;;;0.00;0.00;;;;;10.54;65.35;102233.22;5064895;28;45274;-74
2021/10/23 05:48:42;;;;;;;;;0.00;0.00;;;;;10.79;65.41;102273.06;5064426;28;46603;-76
2021/10/23 05:51:07;;;;;;;;;0.00;0.00;;;;;10.66;64.97;102248.34;5065042;28;45340;-75
2021/10/23 05:53:33;;;;;;;;;0.00;0.00;;;;;10.82;65.66;102283.59;5047061;28;45545;-76
2021/10/23 05:55:58;;;;;;;;;0.00;0.00;;;;;10.75;65.47;102272.06;5065353;28;45403;-74
2021/10/23 05:58:28;;;;;;;;;0.00;0.00;;;;;10.49;65.47;102229.56;5063694;28;45495;-74
2021/10/23 06:00:57;;;;;;;;;0.00;0.00;;;;;10.64;65.17;102258.72;5058120;28;45351;-74
2021/10/23 06:03:24;;;;;;;;;0.00;0.00;;;;;10.58;65.41;102250.72;5064235;28;45445;-74
2021/10/23 06:05:49;;;;;;;;;1.00;0.00;;;;;10.62;65.41;102251.69;5064577;28;45467;-73
2021/10/23 06:08:14;;;;;;;;;0.00;0.00;;;;;10.64;65.34;102247.41;5040182;28;47166;-73
2021/10/23 06:10:40;;;;;;;;;0.00;0.00;;;;;10.82;65.31;102274.88;5043200;28;46010;-75
2021/10/23 06:13:05;;;;;;;;;0.00;0.00;;;;;10.62;65.17;102236.03;5044126;28;45283;-73
2021/10/23 06:15:30;;;;;;;;;0.00;0.00;;;;;10.87;65.26;102289.84;5041942;28;45614;-75
2021/10/23 06:17:56;;;;;;;;;0.00;0.00;;;;;10.98;65.39;102300.59;5043500;28;46410;-74
2021/10/23 06:20:21;;;;;;;;;0.00;0.00;;;;;10.88;65.35;102277.69;5042680;28;45377;-73
2021/10/23 06:22:48;;;;;;;;;0.00;0.00;;;;;11.05;65.05;102304.28;5044020;28;45249;-74
2021/10/23 06:25:17;;;;;;;;;0.75;0.00;;;;;11.00;65.29;102303.25;5044449;28;45515;-74
2021/10/23 06:27:42;;;;;;;;;0.00;0.00;;;;;10.95;64.99;102294.41;5028728;28;48152;-74
2021/10/23 06:30:07;;;;;;;;;0.00;0.00;;;;;10.99;65.25;102301.47;5043681;28;45301;-74
2021/10/23 06:32:33;;;;;;;;;0.00;0.00;;;;;11.08;65.49;102307.00;5042554;28;45365;-76
2021/10/23 06:34:58;;;;;;;;;0.00;0.00;;;;;10.95;65.04;102292.69;5043652;28;45315;-74
2021/10/23 06:37:24;;;;;;;;;0.00;0.00;;;;;10.94;65.26;102295.25;5042860;28;47834;-74
2021/10/23 06:39:50;;;;;;;;;0.00;0.00;;;;;10.84;65.22;102278.44;5044050;28;45307;-76
2021/10/23 06:42:16;;;;;;;;;0.00;0.00;;;;;10.89;65.05;102290.78;5044986;28;45850;-75
2021/10/23 06:44:41;;;;;;;;;0.00;0.00;;;;;11.00;65.15;102309.34;5052177;28;45307;-74
2021/10/23 06:47:06;;;;;;;;;0.00;0.00;;;;;10.92;65.00;102307.31;5034931;28;46191;-75
2021/10/23 06:49:32;;;;;;;;;0.00;0.00;;;;;10.95;64.66;102308.31;5050020;28;45328;-75
2021/10/23 06:51:57;;;;;;;;;0.00;0.00;;;;;10.75;64.96;102277.28;5055060;28;45375;-77
2021/10/23 06:54:22;;;;;;;;;0.00;0.00;;;;;10.66;65.11;102256.16;5060812;28;45540;-77
2021/10/23 06:56:48;;;;;;;;;0.00;0.00;;;;;10.69;64.90;102266.66;5055860;28;47394;-76
2021/10/23 06:59:13;;;;;;;;;0.00;0.00;;;;;10.84;65.00;102291.47;5047868;28;45252;-78
2021/10/23 07:01:39;;;;;;;;;0.00;0.00;;;;;11.13;64.84;102346.25;5064255;28;44804;-78
2021/10/23 07:04:04;;;;;;;;;0.00;0.00;;;;;10.95;64.78;102316.13;5053576;28;45371;-75
2021/10/23 07:06:29;;;;;;;;;0.00;0.00;;;;;10.97;64.83;102322.28;5042499;28;45815;-81
2021/10/23 07:08:55;;;;;;;;;0.00;0.00;;;;;11.19;64.80;102355.97;5043275;28;45874;-77
2021/10/23 07:11:20;;;;;;;;;0.00;0.00;;;;;11.12;64.62;102344.47;5042789;28;45550;-76
2021/10/23 07:13:46;;;;;;;;;2.00;1.00;;;;;11.07;64.59;102331.28;5051081;28;45453;-78
2021/10/23 07:16:11;;;;;;;;;0.00;0.00;;;;;11.08;64.53;102355.59;5050273;28;47624;-78
2021/10/23 07:18:37;;;;;;;;;0.00;0.00;;;;;10.18;64.85;102198.16;5051080;28;45376;-80
2021/10/23 07:21:02;;;;;;;;;0.00;0.00;;;;;10.83;64.47;102324.44;5044395;28;45376;-80
2021/10/23 07:23:27;;;;;;;;;0.00;0.00;;;;;10.98;64.89;102334.47;5057411;28;46177;-77
2021/10/23 07:25:53;;;;;;;;;0.00;0.00;;;;;11.06;64.61;102344.28;5051247;28;45498;-75
2021/10/23 07:28:18;;;;;;;;;0.00;0.00;;;;;11.20;64.50;102376.88;5048157;28;45425;-78
2021/10/23 07:30:44;;;;;;;;;0.00;0.00;;;;;11.07;64.71;102348.63;5051141;28;45541;-76
2021/10/23 07:33:09;;;;;;;;;0.00;0.00;;;;;10.99;64.46;102324.94;5054984;28;46011;-75
2021/10/23 07:35:34;;;;;;;;;0.00;0.00;;;;;11.32;64.79;102376.38;5055568;28;46549;-76
2021/10/23 07:38:04;;;;;;;;;0.00;0.00;;;;;11.34;64.74;102382.53;5043437;28;45290;-76
2021/10/23 07:40:30;;;;;;;;;0.00;0.00;;;;;11.39;65.08;102386.16;5050101;28;45319;-75
2021/10/23 07:42:55;;;;;;;;;0.00;0.00;;;;;11.52;64.30;102404.81;5042665;28;45498;-75
2021/10/23 07:45:21;;;;;;;;;2.00;0.00;;;;;11.57;64.23;102399.72;5045582;28;48286;-76
2021/10/23 07:47:46;;;;;;;;;0.00;0.00;;;;;11.56;64.33;102398.88;5041470;28;45493;-76
2021/10/23 07:50:12;;;;;;;;;0.00;0.00;;;;;11.58;64.16;102393.69;5047343;28;45931;-76
2021/10/23 07:52:39;;;;;;;;;1.50;0.00;;;;;11.51;64.13;102384.78;5040436;28;45407;-76
2021/10/23 07:55:09;;;;;;;;;0.00;0.00;;;;;11.45;63.82;102376.78;5056574;28;47012;-77
2021/10/23 07:57:35;;;;;;;;;0.00;0.00;;;;;11.55;64.10;102388.38;5046556;28;45787;-76
2021/10/23 08:00:01;;;;;;;;;0.00;0.00;;;;;11.54;63.58;102384.88;5051254;28;45414;-76
2021/10/23 08:02:27;;;;;;;;;0.00;0.00;;;;;11.66;63.69;102407.84;5050575;28;45517;-77
2021/10/23 08:04:52;;;;;;;;;0.00;0.00;;;;;11.60;63.68;102398.13;5040675;28;46967;-76
2021/10/23 08:07:19;;;;;;;;;0.00;0.00;;;;;11.75;63.71;102422.91;5050081;28;45472;-76
2021/10/23 08:09:44;;;;;;;;;0.00;0.00;;;;;11.52;63.58;102400.47;5039914;28;45434;-78
2021/10/23 08:12:09;;;;;;;;;1.75;1.00;;;;;11.45;63.68;102387.22;5051326;28;45358;-77
2021/10/23 08:14:36;;;;;;;;;0.00;0.00;;;;;11.47;63.48;102389.03;5039625;28;45415;-77
2021/10/23 08:17:03;;;;;;;;;0.00;0.00;;;;;11.49;63.40;102383.88;5020810;28;45955;-77
2021/10/23 08:19:29;;;;;;;;;0.00;0.00;;;;;11.66;63.43;102408.75;5037213;28;45374;-76
2021/10/23 08:21:54;;;;;;;;;0.50;0.00;;;;;11.73;63.21;102415.03;5040028;28;45680;-77
2021/10/23 08:24:20;;;;;;;;;0.00;0.00;;;;;11.47;63.25;102372.47;5037359;28;47979;-77
2021/10/23 08:26:45;;;;;;;;;0.00;0.00;;;;;11.64;63.25;102384.31;5021507;28;45829;-77
2021/10/23 08:29:15;;;;;;;;;0.00;0.00;;;;;11.76;63.30;102388.16;5021470;28;45340;-77
2021/10/23 08:31:42;;;;;;;;;0.00;0.00;;;;;11.86;63.47;102399.75;5021882;28;45628;-77
2021/10/23 08:34:09;;;;;;;;;1.00;0.00;;;;;11.83;63.12;102386.63;5039566;28;45392;-76
2021/10/23 08:36:34;;;;;;;;;1.00;0.50;;;;;11.94;63.08;102405.22;5039994;28;45442;-76
2021/10/23 08:38:59;;;;;;;;;0.00;0.00;;;;;12.01;62.99;102415.84;5022127;28;45254;-77
2021/10/23 08:41:25;;;;;;;;;1.00;0.00;;;;;11.97;63.18;102400.09;5039316;28;45334;-77
2021/10/23 08:43:51;;;;;;;;;0.25;0.00;;;;;12.08;63.20;102416.06;5040198;28;46575;-77
2021/10/23 08:46:22;;;;;;;;;1.00;0.00;;;;;12.00;62.87;102407.97;5040552;28;45336;-77
2021/10/23 08:48:52;;;;;;;;;0.00;0.00;;;;;11.97;62.96;102403.56;5040141;28;45411;-76
2021/10/23 08:51:18;;;;;;;;;0.00;0.00;;;;;12.07;62.85;102419.53;5037975;28;45456;-77
2021/10/23 08:53:44;;;;;;;;;0.00;0.00;;;;;12.09;62.73;102416.13;5022397;28;47210;-77
2021/10/23 08:56:10;;;;;;;;;0.00;0.00;;;;;12.07;62.78;102412.56;5039448;28;45635;-77
2021/10/23 08:58:36;;;;;;;;;0.00;0.00;;;;;12.13;62.79;102420.59;5040573;28;45491;-75
2021/10/23 09:01:03;;;;;;;;;0.50;0.00;;;;;12.29;62.72;102428.88;5041692;28;45580;-78
2021/10/23 09:03:29;;;;;;;;;0.00;0.00;;;;;12.39;62.71;102430.00;5022224;28;47610;-78
2021/10/23 09:05:54;;;;;;;;;0.00;0.00;;;;;12.29;62.38;102402.75;5022322;28;45420;-80
2021/10/23 09:08:22;;;;;;;;;0.00;0.00;;;;;12.24;62.27;102380.84;5056867;28;45528;-77
2021/10/23 09:10:50;;;;;;;;;0.00;0.00;;;;;12.41;62.19;102415.28;5062104;28;45558;-76
2021/10/23 09:13:36;;;;;;;;;0.00;0.00;;;;;12.52;62.25;102399.88;5058426;28;45712;-77
2021/10/23 09:16:18;;;;;;;;;0.00;0.00;;;;;12.35;62.28;102379.44;5041530;28;45395;-77
2021/10/23 09:18:50;;;;;;;;;0.00;0.00;;;;;12.36;61.88;102378.59;5041236;28;45381;-76
2021/10/23 09:21:23;;;;;;;;;1.00;0.25;;;;;12.40;62.13;102375.22;5042305;28;45628;-78
2021/10/23 09:23:50;;;;;;;;;1.00;1.00;;;;;12.74;61.90;102424.00;5060549;28;46654;-76
2021/10/23 09:26:36;;;;;;;;;1.50;0.00;;;;;12.54;61.96;102391.28;5059617;28;45570;-76
2021/10/23 09:29:18;;;;;;;;;2.50;0.00;;;;;12.80;61.92;102425.03;5041999;28;45322;-76
2021/10/23 09:31:45;;;;;;;;;0.00;0.00;;;;;12.88;61.84;102427.84;5042362;28;45308;-76
2021/10/23 09:34:12;;;;;;;;;0.00;0.00;;;;;12.78;61.72;102399.72;5041856;28;47872;-77
2021/10/23 09:36:44;;;;;;;;;0.00;0.00;;;;;12.64;61.66;102387.16;5043210;28;45978;-77
2021/10/23 09:39:10;;;;;;;;;0.00;0.00;;;;;12.74;61.55;102387.41;5042200;28;45488;-76
2021/10/23 09:41:36;;;;;;;;;0.00;0.00;;;;;12.79;61.63;102380.56;5060428;28;45215;-77
2021/10/23 09:44:19;;;;;;;;;0.00;0.00;;;;;12.66;61.42;102351.53;5041605;28;48157;-78
2021/10/23 09:46:54;;;;;;;;;0.00;0.00;;;;;12.82;61.27;102385.88;5041977;28;45390;-77
2021/10/23 09:49:23;;;;;;;;;0.00;0.00;;;;;13.06;61.30;102418.72;5056699;28;45350;-78
2021/10/23 09:52:03;;;;;;;;;0.00;0.00;;;;;12.86;61.30;102381.63;5044973;28;45438;-80
2021/10/23 09:54:28;;;;;;;;;0.00;0.00;;;;;12.69;61.06;102331.53;5041938;28;48071;-81
2021/10/23 09:56:53;;;;;;;;;0.75;0.50;;;;;12.63;61.22;102312.25;5060677;28;45364;-78
2021/10/23 09:59:29;;;;;;;;;0.50;0.50;;;;;13.35;61.22;102420.28;5062290;28;45355;-79
2021/10/23 10:02:01;;;;;;;;;0.75;0.50;;;;;13.05;60.85;102367.28;5062290;28;45166;-79
2021/10/23 10:04:29;;;;;;;;;0.00;0.00;;;;;13.12;60.72;102379.66;5062403;28;46261;-79
2021/10/23 10:06:55;;;;;;;;;0.00;0.00;;;;;13.22;60.55;102399.06;5040665;28;45490;-80
2021/10/23 10:09:22;;;;;;;;;0.75;0.00;;;;;13.41;60.71;102420.41;5041651;28;45375;-79
2021/10/23 10:11:50;;;;;;;;;0.00;0.00;;;;;13.41;60.53;102412.56;5041990;28;45464;-77
2021/10/23 10:14:17;;;;;;;;;0.00;0.00;;;;;13.53;60.63;102422.47;5042424;28;45575;-76
2021/10/23 10:16:45;;;;;;;;;1.00;0.50;;;;;13.50;60.37;102406.69;5038842;28;45669;-77
2021/10/23 10:19:14;;;;;;;;;0.00;0.00;;;;;13.64;59.86;102414.88;5032922;28;45319;-75
2021/10/23 10:21:42;;;;;;;;;0.00;0.00;;;;;13.70;59.96;102422.88;5037674;28;45562;-82
2021/10/23 10:24:14;;;;;;;;;0.00;0.00;;;;;13.73;60.00;102419.44;5042936;28;45446;-81
2021/10/23 10:26:40;;;;;;;;;0.00;0.00;;;;;13.16;59.98;102325.69;5041222;28;45990;-82
2021/10/23 10:32:21;;;;;;;;;0.00;0.00;;;;;13.60;60.23;102416.53;5043676;28;45486;-82
2021/10/23 10:40:31;;;;;;;;;0.00;0.00;;;;;13.68;60.00;102422.84;5047403;28;45376;-87
2021/10/23 10:43:04;;;;;;;;;0.00;0.00;;;;;13.58;59.76;102375.47;5042809;28;45470;-80
2021/10/23 10:45:41;;;;;;;;;0.00;0.00;;;;;13.84;59.02;102417.94;5047386;28;46376;-79
2021/10/23 10:48:07;;;;;;;;;0.00;0.00;;;;;13.94;58.88;102419.91;5044392;28;45355;-79
2021/10/23 10:50:38;;;;;;;;;0.00;0.00;;;;;13.91;59.05;102392.78;5030250;28;45555;-79
2021/10/23 10:53:20;;;;;;;;;2.00;0.00;;;;;13.90;59.13;102363.09;5045578;28;45494;-81
2021/10/23 10:55:49;;;;;;;;;1.00;0.00;;;;;13.85;58.89;102356.91;5043701;28;45417;-80
2021/10/23 10:58:15;;;;;;;;;0.75;0.50;;;;;13.98;58.39;102389.44;5041770;28;45427;-80
2021/10/23 11:01:11;;;;;;;;;0.75;0.00;;;;;13.84;58.63;102406.59;5025890;28;45367;-78
2021/10/23 11:03:53;;;;;;;;;0.00;0.00;;;;;13.59;59.03;102369.41;5041109;28;45357;-80
2021/10/23 11:09:11;;;;;;;;;0.25;0.25;;;;;13.52;59.34;102397.16;5080479;28;45356;-81
2021/10/23 11:11:49;;;;;;;;;0.00;0.00;;;;;13.50;59.31;102391.00;5065375;28;45261;-81
2021/10/23 11:14:21;;;;;;;;;0.00;0.00;;;;;13.47;59.56;102394.41;5066101;28;45575;-78
2021/10/23 11:16:56;;;;;;;;;0.00;0.00;;;;;13.45;59.49;102390.88;5046282;28;47515;-82
2021/10/23 11:19:28;;;;;;;;;0.50;0.00;;;;;13.46;58.96;102386.53;5047402;28;45399;-81
2021/10/23 11:22:01;;;;;;;;;0.00;0.00;;;;;13.41;59.44;102386.41;5051263;28;45469;-80
2021/10/23 11:24:29;;;;;;;;;0.00;0.00;;;;;13.23;59.26;102353.75;5051531;28;45698;-77
2021/10/23 11:26:56;;;;;;;;;0.00;0.00;;;;;13.36;59.13;102380.19;5061936;28;45551;-78
2021/10/23 11:29:28;;;;;;;;;0.00;0.00;;;;;13.23;59.67;102366.81;5060803;28;45497;-80
2021/10/23 11:31:55;;;;;;;;;0.00;0.00;;;;;13.24;59.53;102368.63;5043803;28;45439;-80
2021/10/23 11:34:28;;;;;;;;;0.00;0.00;;;;;13.03;59.73;102328.03;5043958;28;45333;-80